Time;durP1;ratioP1;P1;durP2;ratioP2;P2;SDS_P1;SDS_P2;PMS_P1;PMS_P2;Temp;Humidity;BMP_temperature;BMP_pressure;BME280_temperature;BME280_humidity;BME280_pressure;Samples;Min_cycle;Max_cycle;Signal;HPM_P1;HPM_P2
2021/09/19 00:17:27;;;;;;;3.72;3.42;;;;;;;;;;4429391;28;20110;-63
2021/09/19 00:19:53;;;;;;;4.05;3.37;;;;;;;;;;4136963;34;20145;-66
2021/09/19 00:22:19;;;;;;;3.83;3.33;;;;;;;;;;4136760;34;20099;-65
2021/09/19 00:24:45;;;;;;;4.07;3.60;;;;;;;;;;4137026;34;20096;-66
2021/09/19 00:27:10;;;;;;;4.00;3.58;;;;;;;;;;4137070;34;20112;-65
2021/09/19 00:29:36;;;;;;;4.32;3.92;;;;;;;;;;4136851;34;20119;-65
2021/09/19 00:32:02;;;;;;;5.15;3.55;;;;;;;;;;4135499;34;20459;-65
2021/09/19 00:34:29;;;;;;;4.00;3.60;;;;;;;;;;4137125;34;20131;-65
2021/09/19 00:36:55;;;;;;;4.30;3.90;;;;;;;;;;4135435;34;20546;-65
2021/09/19 00:39:20;;;;;;;4.20;3.80;;;;;;;;;;4137091;34;20119;-65
2021/09/19 00:41:46;;;;;;;5.07;4.18;;;;;;;;;;4135722;34;20208;-66
2021/09/19 00:44:12;;;;;;;4.55;4.12;;;;;;;;;;4135493;34;20119;-66
2021/09/19 00:46:38;;;;;;;4.82;4.18;;;;;;;;;;4135371;34;20123;-67
2021/09/19 00:49:05;;;;;;;5.90;4.20;;;;;;;;;;4135555;34;20470;-66
2021/09/19 00:51:31;;;;;;;6.55;4.45;;;;;;;;;;4136739;34;20652;-67
2021/09/19 00:53:57;;;;;;;4.43;4.03;;;;;;;;;;4136757;34;20111;-65
2021/09/19 00:56:25;;;;;;;4.00;3.70;;;;;;;;;;4136739;34;20529;-67
2021/09/19 00:58:52;;;;;;;5.40;4.22;;;;;;;;;;4136639;34;20129;-67
2021/09/19 01:01:18;;;;;;;7.10;5.18;;;;;;;;;;4136676;34;20207;-66
2021/09/19 01:03:44;;;;;;;11.18;4.70;;;;;;;;;;4135554;34;20127;-66
2021/09/19 01:06:10;;;;;;;4.45;4.05;;;;;;;;;;4135320;34;20146;-67
2021/09/19 01:08:36;;;;;;;4.40;3.97;;;;;;;;;;4136903;34;20193;-67
2021/09/19 01:11:02;;;;;;;6.15;4.53;;;;;;;;;;4136735;34;20233;-66
2021/09/19 01:13:28;;;;;;;4.37;3.87;;;;;;;;;;4135450;34;20123;-66
2021/09/19 01:15:54;;;;;;;4.93;4.43;;;;;;;;;;4136358;34;20241;-66
2021/09/19 01:18:20;;;;;;;4.72;3.80;;;;;;;;;;4136354;34;20135;-66
2021/09/19 01:20:46;;;;;;;4.72;3.83;;;;;;;;;;4136730;34;20127;-66
2021/09/19 01:23:13;;;;;;;3.47;3.15;;;;;;;;;;4123901;34;20637;-66
2021/09/19 01:25:39;;;;;;;4.03;3.22;;;;;;;;;;4136291;34;20134;-66
2021/09/19 01:28:05;;;;;;;3.75;3.42;;;;;;;;;;4124070;34;20523;-65
2021/09/19 01:30:31;;;;;;;4.82;3.40;;;;;;;;;;4123882;34;20115;-67
2021/09/19 01:32:57;;;;;;;3.72;3.42;;;;;;;;;;4123877;34;20131;-66
2021/09/19 01:35:23;;;;;;;4.07;3.67;;;;;;;;;;4136246;34;20226;-66
2021/09/19 01:37:49;;;;;;;3.78;3.40;;;;;;;;;;4136219;34;20130;-66
2021/09/19 01:40:17;;;;;;;5.80;3.35;;;;;;;;;;4136490;34;20212;-67
2021/09/19 01:42:43;;;;;;;6.82;4.20;;;;;;;;;;4123720;34;20547;-67
2021/09/19 01:45:09;;;;;;;4.70;4.20;;;;;;;;;;4135564;34;20119;-66
2021/09/19 01:47:35;;;;;;;5.40;3.78;;;;;;;;;;4135956;34;20196;-69
2021/09/19 01:50:02;;;;;;;4.28;3.87;;;;;;;;;;4136095;34;20160;-66
2021/09/19 01:52:29;;;;;;;6.15;3.90;;;;;;;;;;4123651;34;20190;-66
2021/09/19 01:54:55;;;;;;;4.85;4.37;;;;;;;;;;4123534;34;20131;-67
2021/09/19 01:57:22;;;;;;;7.60;4.30;;;;;;;;;;4136367;34;20535;-67
2021/09/19 01:59:49;;;;;;;4.65;4.18;;;;;;;;;;4136195;34;20108;-67
2021/09/19 02:02:16;;;;;;;6.95;4.25;;;;;;;;;;4136142;34;20479;-67
2021/09/19 02:04:42;;;;;;;5.68;4.53;;;;;;;;;;4123907;34;20147;-67
2021/09/19 02:07:08;;;;;;;4.65;4.15;;;;;;;;;;4123825;34;20506;-67
2021/09/19 02:09:34;;;;;;;5.00;4.50;;;;;;;;;;4135989;34;20112;-67
2021/09/19 02:12:00;;;;;;;8.10;3.90;;;;;;;;;;4123589;34;20134;-67
2021/09/19 02:14:26;;;;;;;4.75;4.25;;;;;;;;;;4123788;34;20126;-68
2021/09/19 02:16:52;;;;;;;4.70;4.20;;;;;;;;;;4135980;34;20299;-68
2021/09/19 02:19:18;;;;;;;5.03;3.95;;;;;;;;;;4135882;34;20297;-68
2021/09/19 02:21:45;;;;;;;4.40;4.00;;;;;;;;;;4123072;34;20768;-67
2021/09/19 02:24:11;;;;;;;6.70;4.00;;;;;;;;;;4135800;34;20232;-67
2021/09/19 02:26:37;;;;;;;8.48;5.50;;;;;;;;;;4135644;34;20139;-68
2021/09/19 02:29:03;;;;;;;5.60;4.25;;;;;;;;;;4135770;34;20232;-68
2021/09/19 02:31:30;;;;;;;4.15;3.75;;;;;;;;;;4135715;34;20177;-67
2021/09/19 02:33:56;;;;;;;4.30;3.90;;;;;;;;;;4135665;34;20110;-67
2021/09/19 02:36:22;;;;;;;6.12;4.20;;;;;;;;;;4123351;34;20953;-67
2021/09/19 02:38:48;;;;;;;5.75;3.70;;;;;;;;;;4123493;34;20122;-68
2021/09/19 02:41:14;;;;;;;4.37;3.97;;;;;;;;;;4135672;34;20096;-68
2021/09/19 02:43:40;;;;;;;3.83;3.45;;;;;;;;;;4123490;34;20460;-68
2021/09/19 02:46:06;;;;;;;4.22;3.83;;;;;;;;;;4122986;34;20108;-68
2021/09/19 02:48:32;;;;;;;3.90;3.50;;;;;;;;;;4135670;34;20115;-69
2021/09/19 02:50:59;;;;;;;4.00;3.70;;;;;;;;;;4123192;34;20219;-68
2021/09/19 02:53:26;;;;;;;4.57;3.95;;;;;;;;;;4135582;34;20096;-67
2021/09/19 02:55:52;;;;;;;3.83;3.53;;;;;;;;;;4123326;34;20120;-67
2021/09/19 02:58:18;;;;;;;4.90;3.58;;;;;;;;;;4137664;34;20469;-67
2021/09/19 03:00:44;;;;;;;4.07;3.60;;;;;;;;;;4125532;34;20135;-69
2021/09/19 03:03:10;;;;;;;3.50;3.20;;;;;;;;;;4137687;34;20125;-68
2021/09/19 03:05:36;;;;;;;3.55;2.83;;;;;;;;;;4137266;34;20307;-68
2021/09/19 03:08:02;;;;;;;4.40;3.60;;;;;;;;;;4137704;34;20096;-68
2021/09/19 03:10:28;;;;;;;3.62;3.33;;;;;;;;;;4137505;34;20104;-68
2021/09/19 03:12:54;;;;;;;4.60;3.50;;;;;;;;;;4125162;34;20112;-69
2021/09/19 03:15:20;;;;;;;4.40;3.92;;;;;;;;;;4137493;34;20130;-69
2021/09/19 03:17:46;;;;;;;8.93;3.83;;;;;;;;;;4137477;34;20759;-68
2021/09/19 03:20:16;;;;;;;3.62;3.33;;;;;;;;;;4137536;34;20127;-68
2021/09/19 03:22:42;;;;;;;4.32;3.67;;;;;;;;;;4114249;34;20223;-68
2021/09/19 03:25:09;;;;;;;3.83;3.20;;;;;;;;;;4137402;34;20126;-68
2021/09/19 03:27:35;;;;;;;4.20;3.80;;;;;;;;;;4137299;34;20171;-68
2021/09/19 03:30:01;;;;;;;4.28;3.40;;;;;;;;;;4124904;34;20115;-67
2021/09/19 03:32:27;;;;;;;3.90;3.50;;;;;;;;;;4124994;34;20198;-68
2021/09/19 03:34:53;;;;;;;7.47;3.53;;;;;;;;;;4137338;34;20467;-68
2021/09/19 03:37:19;;;;;;;5.15;3.30;;;;;;;;;;4137311;34;20210;-67
2021/09/19 03:39:45;;;;;;;3.55;3.25;;;;;;;;;;4137372;34;20131;-68
2021/09/19 03:42:11;;;;;;;3.55;3.25;;;;;;;;;;4137238;34;20148;-68
2021/09/19 03:44:37;;;;;;;4.03;3.45;;;;;;;;;;4137476;34;20150;-67
2021/09/19 03:47:03;;;;;;;3.50;3.20;;;;;;;;;;4137202;34;20115;-66
2021/09/19 03:49:30;;;;;;;3.97;3.37;;;;;;;;;;4137280;34;20132;-68
2021/09/19 03:51:56;;;;;;;4.18;3.50;;;;;;;;;;4137491;34;20142;-67
2021/09/19 03:54:22;;;;;;;4.90;3.60;;;;;;;;;;4124780;34;20146;-66
2021/09/19 03:56:48;;;;;;;4.28;3.87;;;;;;;;;;4136654;34;20233;-66
2021/09/19 03:59:14;;;;;;;4.30;3.90;;;;;;;;;;4136870;34;20141;-67
2021/09/19 04:01:40;;;;;;;4.15;3.72;;;;;;;;;;4137387;34;20125;-68
2021/09/19 04:04:05;;;;;;;4.45;3.92;;;;;;;;;;4124960;34;20507;-67
2021/09/19 04:06:31;;;;;;;5.45;3.97;;;;;;;;;;4124280;34;20136;-67
2021/09/19 04:08:57;;;;;;;5.45;4.00;;;;;;;;;;4137033;34;20124;-68
2021/09/19 04:11:23;;;;;;;5.93;3.83;;;;;;;;;;4124380;34;20127;-67
2021/09/19 04:13:49;;;;;;;5.07;3.83;;;;;;;;;;4137119;34;20288;-66
2021/09/19 04:16:15;;;;;;;6.05;4.43;;;;;;;;;;4137018;34;20128;-66
2021/09/19 04:18:41;;;;;;;4.20;3.80;;;;;;;;;;4136913;34;20135;-66
2021/09/19 04:21:07;;;;;;;4.65;4.15;;;;;;;;;;4136924;34;20222;-66
2021/09/19 04:23:33;;;;;;;5.03;4.15;;;;;;;;;;4124455;34;20102;-66
2021/09/19 04:25:59;;;;;;;4.35;3.95;;;;;;;;;;4113440;34;20111;-67
2021/09/19 04:28:25;;;;;;;5.28;4.18;;;;;;;;;;4124360;34;20096;-68
2021/09/19 04:30:54;;;;;;;5.10;4.60;;;;;;;;;;4113345;34;20099;-67
2021/09/19 04:33:20;;;;;;;5.93;4.80;;;;;;;;;;4137013;34;20508;-68
2021/09/19 04:35:46;;;;;;;5.90;4.68;;;;;;;;;;4136936;34;20131;-67
2021/09/19 04:38:13;;;;;;;4.55;4.07;;;;;;;;;;4124509;34;20118;-67
2021/09/19 04:40:39;;;;;;;6.10;4.15;;;;;;;;;;4124675;34;20551;-67
2021/09/19 04:43:04;;;;;;;4.97;4.30;;;;;;;;;;4124555;34;20134;-68
2021/09/19 04:45:30;;;;;;;4.53;3.85;;;;;;;;;;4136687;34;20111;-66
2021/09/19 04:47:56;;;;;;;5.05;4.10;;;;;;;;;;4113157;34;20119;-66
2021/09/19 04:50:22;;;;;;;4.47;3.90;;;;;;;;;;4113155;34;20188;-65
2021/09/19 04:52:48;;;;;;;7.30;5.53;;;;;;;;;;4113205;34;20115;-66
2021/09/19 04:55:14;;;;;;;6.07;4.22;;;;;;;;;;4136687;34;20112;-66
2021/09/19 04:57:40;;;;;;;4.78;4.25;;;;;;;;;;4136918;34;20546;-65
2021/09/19 05:00:06;;;;;;;5.35;4.43;;;;;;;;;;4136690;34;20138;-66
2021/09/19 05:02:32;;;;;;;6.40;4.12;;;;;;;;;;4123869;34;20205;-66
2021/09/19 05:04:58;;;;;;;5.15;4.62;;;;;;;;;;4136625;34;20154;-64
2021/09/19 05:07:24;;;;;;;7.28;4.50;;;;;;;;;;4136674;34;20115;-66
2021/09/19 05:09:50;;;;;;;5.28;4.22;;;;;;;;;;4136901;34;20215;-65
2021/09/19 05:12:16;;;;;;;5.62;5.03;;;;;;;;;;4136538;34;20103;-65
2021/09/19 05:14:41;;;;;;;5.78;5.20;;;;;;;;;;4123956;34;20166;-67
2021/09/19 05:17:07;;;;;;;5.22;4.72;;;;;;;;;;4125089;34;20764;-66
2021/09/19 05:19:33;;;;;;;4.85;4.37;;;;;;;;;;4135699;34;20150;-65
2021/09/19 05:21:59;;;;;;;5.68;4.80;;;;;;;;;;4136716;34;20206;-67
2021/09/19 05:24:25;;;;;;;4.80;4.18;;;;;;;;;;4133047;34;20120;-68
2021/09/19 05:32:02;;;;;;;4.53;3.58;;;;;;;;;;4342490;28;20102;-71
2021/09/19 05:34:31;;;;;;;3.20;2.90;;;;;;;;;;4159565;34;20119;-71
2021/09/19 05:36:58;;;;;;;3.78;3.22;;;;;;;;;;4137188;34;20120;-63
2021/09/19 05:39:24;;;;;;;3.65;3.35;;;;;;;;;;4121414;34;20100;-61
2021/09/19 05:41:51;;;;;;;3.33;3.03;;;;;;;;;;4120694;34;20528;-62
2021/09/19 05:44:18;;;;;;;3.53;3.20;;;;;;;;;;4121383;34;20198;-62
2021/09/19 05:46:44;;;;;;;8.93;4.62;;;;;;;;;;4121103;34;20130;-72
2021/09/19 05:49:10;;;;;;;3.40;3.10;;;;;;;;;;4099753;34;20124;-70
2021/09/19 05:51:36;;;;;;;4.93;3.28;;;;;;;;;;4110277;34;20551;-65
2021/09/19 05:54:01;;;;;;;3.28;2.97;;;;;;;;;;4121424;34;20139;-67
2021/09/19 05:56:27;;;;;;;3.28;2.97;;;;;;;;;;4121276;34;20131;-63
2021/09/19 05:58:54;;;;;;;3.30;3.00;;;;;;;;;;4121342;34;20327;-72
2021/09/19 06:01:21;;;;;;;3.70;3.20;;;;;;;;;;4110392;34;20546;-73
2021/09/19 06:03:46;;;;;;;3.60;3.20;;;;;;;;;;4121388;34;20519;-72
2021/09/19 06:06:12;;;;;;;2.85;2.62;;;;;;;;;;4121098;34;20228;-70
2021/09/19 06:08:38;;;;;;;3.30;3.00;;;;;;;;;;4121555;34;20544;-66
2021/09/19 06:11:05;;;;;;;3.35;3.05;;;;;;;;;;4099601;34;20131;-66
2021/09/19 06:13:31;;;;;;;3.67;2.90;;;;;;;;;;4110430;34;20108;-66
2021/09/19 06:15:56;;;;;;;3.97;3.58;;;;;;;;;;4121059;34;20328;-66
2021/09/19 06:18:22;;;;;;;3.45;3.00;;;;;;;;;;4121229;34;20116;-70
2021/09/19 06:20:48;;;;;;;3.62;3.33;;;;;;;;;;4122557;34;20131;-73
2021/09/19 06:23:14;;;;;;;3.85;3.33;;;;;;;;;;4121023;34;20459;-72
2021/09/19 06:25:40;;;;;;;3.17;2.85;;;;;;;;;;4121115;34;20108;-65
2021/09/19 06:28:06;;;;;;;3.72;3.22;;;;;;;;;;4110020;34;20205;-64
2021/09/19 06:30:32;;;;;;;3.67;3.37;;;;;;;;;;4110666;34;20536;-64
2021/09/19 06:32:58;;;;;;;4.25;3.05;;;;;;;;;;4123298;34;20153;-67
2021/09/19 06:35:24;;;;;;;3.20;2.90;;;;;;;;;;4123233;34;20542;-70
2021/09/19 06:37:50;;;;;;;5.28;3.42;;;;;;;;;;4123265;34;20548;-71
2021/09/19 06:40:16;;;;;;;3.47;3.17;;;;;;;;;;4124409;34;20118;-71
2021/09/19 06:42:42;;;;;;;4.10;3.37;;;;;;;;;;4111913;34;20092;-71
2021/09/19 06:45:10;;;;;;;12.37;3.97;;;;;;;;;;4123580;34;20099;-71
2021/09/19 06:47:41;;;;;;;3.53;3.22;;;;;;;;;;4112314;34;20209;-71
2021/09/19 06:50:08;;;;;;;3.50;3.10;;;;;;;;;;4124476;34;20126;-71
2021/09/19 06:52:34;;;;;;;3.50;3.20;;;;;;;;;;4123061;34;20123;-73
2021/09/19 06:55:00;;;;;;;3.50;3.20;;;;;;;;;;4122956;34;20614;-73
2021/09/19 06:57:26;;;;;;;5.15;3.17;;;;;;;;;;4123038;34;20532;-71
2021/09/19 06:59:52;;;;;;;3.95;3.45;;;;;;;;;;4124492;34;20123;-71
2021/09/19 07:02:18;;;;;;;4.30;3.90;;;;;;;;;;4124248;34;20124;-70
2021/09/19 07:04:43;;;;;;;5.72;3.37;;;;;;;;;;4123058;34;20632;-63
2021/09/19 07:07:10;;;;;;;4.10;3.35;;;;;;;;;;4124169;34;20211;-71
2021/09/19 07:09:36;;;;;;;3.37;3.08;;;;;;;;;;4123051;34;20114;-72
2021/09/19 07:12:02;;;;;;;3.60;3.30;;;;;;;;;;4123084;34;20120;-64
2021/09/19 07:14:28;;;;;;;3.58;3.22;;;;;;;;;;4111761;34;20127;-65
2021/09/19 07:16:54;;;;;;;3.40;3.10;;;;;;;;;;4124043;34;20634;-65
2021/09/19 07:19:20;;;;;;;3.70;3.40;;;;;;;;;;4124185;34;20112;-64
2021/09/19 07:21:45;;;;;;;3.20;2.90;;;;;;;;;;4123057;34;20129;-65
2021/09/19 07:24:11;;;;;;;3.50;3.20;;;;;;;;;;4123026;34;20107;-65
2021/09/19 07:26:37;;;;;;;3.40;3.00;;;;;;;;;;4123842;34;20128;-65
2021/09/19 07:29:04;;;;;;;3.80;3.50;;;;;;;;;;4123976;34;20587;-65
2021/09/19 07:31:30;;;;;;;3.33;3.03;;;;;;;;;;4123766;34;20111;-65
2021/09/19 07:33:56;;;;;;;3.85;3.55;;;;;;;;;;4124160;34;20127;-66
2021/09/19 07:36:31;;;;;;;3.62;3.20;;;;;;;;;;4114552;34;20445;-66
2021/09/19 07:39:00;;;;;;;;;;;;;;;;;;4116202;34;20087;-66
2021/09/19 07:41:27;;;;;;;4.37;2.95;;;;;;;;;;4126877;34;20022;-66
2021/09/19 07:43:53;;;;;;;3.00;2.70;;;;;;;;;;4122627;34;20437;-66
2021/09/19 07:46:19;;;;;;;4.22;3.30;;;;;;;;;;4130779;34;20512;-66
2021/09/19 07:48:45;;;;;;;3.53;2.90;;;;;;;;;;4114716;34;20191;-66
2021/09/19 07:51:11;;;;;;;3.65;3.35;;;;;;;;;;4133612;34;20127;-66
2021/09/19 07:53:38;;;;;;;4.22;2.85;;;;;;;;;;4133591;34;20095;-74
2021/09/19 07:56:03;;;;;;;3.33;3.03;;;;;;;;;;4122739;34;20103;-75
2021/09/19 07:58:29;;;;;;;2.90;2.70;;;;;;;;;;4133780;34;20120;-75
2021/09/19 08:00:55;;;;;;;5.20;3.05;;;;;;;;;;4122442;34;20132;-75
2021/09/19 08:03:21;;;;;;;3.30;2.97;;;;;;;;;;4133402;34;20625;-75
2021/09/19 08:05:47;;;;;;;3.55;3.08;;;;;;;;;;4123734;34;20623;-66
2021/09/19 08:08:13;;;;;;;3.90;2.90;;;;;;;;;;4141036;34;20210;-66
2021/09/19 08:10:39;;;;;;;5.25;3.05;;;;;;;;;;4128790;34;20129;-66
2021/09/19 08:13:05;;;;;;;4.68;3.33;;;;;;;;;;4122204;34;20092;-66
2021/09/19 08:15:31;;;;;;;3.28;2.97;;;;;;;;;;4111171;34;20464;-65
2021/09/19 08:17:57;;;;;;;3.50;3.15;;;;;;;;;;4122323;34;20123;-66
2021/09/19 08:20:22;;;;;;;3.58;3.00;;;;;;;;;;4123009;34;20207;-66
2021/09/19 08:22:48;;;;;;;4.45;3.53;;;;;;;;;;4122000;34;20154;-66
2021/09/19 08:25:15;;;;;;;3.35;3.00;;;;;;;;;;4122089;34;20131;-65
2021/09/19 08:27:41;;;;;;;3.10;2.80;;;;;;;;;;4122042;34;20295;-65
2021/09/19 08:30:08;;;;;;;5.03;3.30;;;;;;;;;;4100141;34;20152;-66
2021/09/19 08:32:34;;;;;;;5.05;3.15;;;;;;;;;;4121505;34;20104;-65
2021/09/19 08:35:00;;;;;;;4.80;3.28;;;;;;;;;;4110651;34;20215;-65
2021/09/19 08:37:26;;;;;;;5.82;3.22;;;;;;;;;;4110753;34;20100;-67
2021/09/19 08:39:53;;;;;;;4.07;3.42;;;;;;;;;;4111052;34;20091;-66
2021/09/19 08:42:20;;;;;;;5.35;3.00;;;;;;;;;;4121825;34;20103;-66
2021/09/19 08:44:46;;;;;;;5.95;3.60;;;;;;;;;;4123812;34;20140;-67
2021/09/19 08:47:12;;;;;;;6.10;3.20;;;;;;;;;;4122940;34;20116;-65
2021/09/19 08:49:39;;;;;;;3.30;3.00;;;;;;;;;;4133431;34;20134;-66
2021/09/19 08:52:05;;;;;;;6.60;2.67;;;;;;;;;;4137169;34;20613;-66
2021/09/19 08:54:31;;;;;;;4.03;3.17;;;;;;;;;;4149690;34;20166;-66
2021/09/19 08:56:57;;;;;;;5.28;3.00;;;;;;;;;;4134480;34;20459;-65
2021/09/19 08:59:22;;;;;;;3.25;2.87;;;;;;;;;;4110955;34;20169;-66
2021/09/19 09:02:01;;;;;;;3.58;3.22;;;;;;;;;;4123312;34;20120;-66
2021/09/19 09:04:26;;;;;;;4.90;3.90;;;;;;;;;;4121828;34;20228;-73
2021/09/19 09:06:53;;;;;;;4.40;3.37;;;;;;;;;;4122699;34;20599;-73
2021/09/19 09:09:19;;;;;;;3.40;3.10;;;;;;;;;;4135243;34;20123;-71
2021/09/19 09:12:09;;;;;;;3.37;3.08;;;;;;;;;;4135803;34;20111;-72
2021/09/19 09:14:42;;;;;;;3.95;3.45;;;;;;;;;;4121883;34;20107;-73
2021/09/19 09:17:19;;;;;;;3.87;3.30;;;;;;;;;;4110369;34;20109;-72
2021/09/19 09:19:53;;;;;;;3.37;3.08;;;;;;;;;;4110951;34;20231;-72
2021/09/19 09:22:20;;;;;;;3.25;2.90;;;;;;;;;;4121590;34;20123;-72
2021/09/19 09:24:46;;;;;;;3.08;2.75;;;;;;;;;;4132239;34;20128;-71
2021/09/19 09:27:23;;;;;;;4.00;3.42;;;;;;;;;;4134263;34;20138;-72
2021/09/19 09:30:14;;;;;;;4.00;3.10;;;;;;;;;;4136265;34;20146;-72
2021/09/19 09:32:57;;;;;;;4.32;3.20;;;;;;;;;;4134865;34;20103;-72
2021/09/19 09:35:25;;;;;;;3.22;2.90;;;;;;;;;;4123599;34;20209;-73
2021/09/19 09:37:54;;;;;;;3.37;3.08;;;;;;;;;;4112987;34;20134;-74
2021/09/19 09:40:26;;;;;;;3.40;3.00;;;;;;;;;;4137090;34;20113;-75
2021/09/19 09:43:06;;;;;;;3.55;3.15;;;;;;;;;;4123976;34;20109;-75
2021/09/19 09:45:34;;;;;;;3.53;2.80;;;;;;;;;;4112757;34;20216;-76
2021/09/19 09:48:00;;;;;;;3.30;3.00;;;;;;;;;;4134914;34;20095;-77
2021/09/19 09:50:27;;;;;;;3.70;3.40;;;;;;;;;;4123990;34;20142;-75
2021/09/19 09:53:13;;;;;;;3.30;3.00;;;;;;;;;;4130549;34;20115;-75
2021/09/19 09:55:45;;;;;;;5.43;3.47;;;;;;;;;;4136680;34;20107;-75
2021/09/19 09:58:18;;;;;;;3.80;3.30;;;;;;;;;;4117813;34;20197;-76
2021/09/19 10:00:44;;;;;;;3.83;3.15;;;;;;;;;;4135006;34;20127;-75
2021/09/19 10:03:11;;;;;;;3.83;3.20;;;;;;;;;;4115522;34;20550;-76
2021/09/19 10:05:37;;;;;;;3.15;2.80;;;;;;;;;;4123282;34;20130;-75
2021/09/19 10:08:03;;;;;;;4.22;2.83;;;;;;;;;;4111914;34;20483;-75
2021/09/19 10:10:32;;;;;;;3.55;3.22;;;;;;;;;;4112308;34;20111;-76
2021/09/19 10:12:58;;;;;;;5.78;4.72;;;;;;;;;;4105625;34;20121;-75
2021/09/19 10:15:25;;;;;;;5.43;4.93;;;;;;;;;;4112121;34;20530;-76
2021/09/19 10:17:51;;;;;;;10.18;7.32;;;;;;;;;;4112070;34;20089;-76
2021/09/19 10:20:36;;;;;;;10.75;8.93;;;;;;;;;;4118249;34;20122;-76
2021/09/19 10:23:02;;;;;;;6.50;5.37;;;;;;;;;;4138988;34;20534;-75
2021/09/19 10:25:47;;;;;;;6.10;5.50;;;;;;;;;;4129351;34;20130;-75
2021/09/19 10:28:26;;;;;;;8.13;6.15;;;;;;;;;;4124363;34;20120;-67
2021/09/19 10:31:19;;;;;;;9.98;7.40;;;;;;;;;;4132557;34;20573;-66
2021/09/19 10:33:48;;;;;;;7.57;5.15;;;;;;;;;;4137664;34;20114;-73
2021/09/19 10:36:21;;;;;;;9.88;8.05;;;;;;;;;;4112408;34;20121;-75
2021/09/19 10:38:47;;;;;;;7.87;6.70;;;;;;;;;;4136439;34;20096;-74
2021/09/19 10:41:21;;;;;;;7.78;6.55;;;;;;;;;;4127171;34;20199;-72
2021/09/19 10:43:52;;;;;;;9.25;7.37;;;;;;;;;;4124586;34;20115;-73
2021/09/19 10:46:36;;;;;;;8.55;7.28;;;;;;;;;;4135631;34;20107;-72
2021/09/19 10:49:12;;;;;;;6.30;5.70;;;;;;;;;;4136549;34;20116;-67
2021/09/19 10:52:00;;;;;;;9.43;7.60;;;;;;;;;;4136017;34;20181;-65
2021/09/19 10:54:51;;;;;;;8.35;5.78;;;;;;;;;;4137231;34;20283;-65
2021/09/19 10:57:32;;;;;;;8.60;5.93;;;;;;;;;;4144666;34;20095;-65
2021/09/19 11:00:07;;;;;;;8.25;5.97;;;;;;;;;;4134699;34;20115;-65
2021/09/19 11:02:36;;;;;;;7.90;6.68;;;;;;;;;;4147798;34;20528;-64
2021/09/19 11:05:25;;;;;;;4.78;3.87;;;;;;;;;;4121162;34;20118;-64
2021/09/19 11:07:51;;;;;;;6.80;4.82;;;;;;;;;;4121540;34;20103;-64
2021/09/19 11:10:17;;;;;;;6.93;4.30;;;;;;;;;;4124039;34;20436;-64
2021/09/19 11:12:46;;;;;;;6.87;4.70;;;;;;;;;;4111795;34;20224;-64
2021/09/19 11:15:16;;;;;;;6.57;4.35;;;;;;;;;;4123639;34;20107;-65
2021/09/19 11:17:51;;;;;;;4.43;4.00;;;;;;;;;;4111103;34;20167;-64
2021/09/19 11:20:17;;;;;;;5.80;4.40;;;;;;;;;;4122640;34;20131;-64
2021/09/19 11:22:43;;;;;;;6.12;4.43;;;;;;;;;;4122683;34;20202;-64
2021/09/19 11:25:10;;;;;;;5.85;4.90;;;;;;;;;;4122657;34;20135;-73
2021/09/19 11:27:38;;;;;;;7.65;6.32;;;;;;;;;;4122645;34;20203;-74
2021/09/19 11:30:05;;;;;;;7.55;5.12;;;;;;;;;;4111308;34;20112;-64
2021/09/19 11:32:31;;;;;;;5.65;5.03;;;;;;;;;;4122759;34;20487;-67
2021/09/19 11:34:58;;;;;;;6.00;4.00;;;;;;;;;;4122582;34;20191;-74
2021/09/19 11:37:27;;;;;;;4.20;3.80;;;;;;;;;;4122737;34;20130;-73
2021/09/19 11:39:52;;;;;;;5.68;3.72;;;;;;;;;;4124043;34;20508;-72
2021/09/19 11:42:18;;;;;;;5.87;4.85;;;;;;;;;;4111304;34;20135;-73
2021/09/19 11:44:49;;;;;;;5.45;4.10;;;;;;;;;;4122432;34;20130;-73
2021/09/19 11:47:17;;;;;;;5.75;3.87;;;;;;;;;;4111501;34;20130;-72
2021/09/19 11:49:44;;;;;;;5.82;4.35;;;;;;;;;;4122549;34;20292;-65
2021/09/19 11:52:10;;;;;;;5.45;4.50;;;;;;;;;;4123964;34;20139;-71
2021/09/19 11:54:36;;;;;;;7.00;4.70;;;;;;;;;;4122362;34;20096;-72
2021/09/19 11:57:02;;;;;;;5.25;4.15;;;;;;;;;;4111444;34;20200;-71
2021/09/19 11:59:28;;;;;;;5.97;3.92;;;;;;;;;;4111569;34;20107;-71
2021/09/19 12:01:55;;;;;;;6.85;4.47;;;;;;;;;;4122325;34;20227;-72
2021/09/19 12:04:21;;;;;;;5.47;4.07;;;;;;;;;;4111202;34;20104;-71
2021/09/19 12:06:47;;;;;;;4.22;3.50;;;;;;;;;;4122630;34;20125;-72
2021/09/19 12:09:18;;;;;;;4.30;3.87;;;;;;;;;;4122336;34;20175;-71
2021/09/19 12:11:46;;;;;;;3.70;3.28;;;;;;;;;;4122477;34;20208;-71
2021/09/19 12:14:18;;;;;;;4.57;3.47;;;;;;;;;;4123636;34;20592;-71
2021/09/19 12:17:03;;;;;;;4.72;3.70;;;;;;;;;;4111989;34;20538;-75
2021/09/19 12:19:30;;;;;;;6.57;5.03;;;;;;;;;;4111482;34;20134;-76
2021/09/19 12:22:04;;;;;;;4.30;3.83;;;;;;;;;;4111623;34;20088;-76
2021/09/19 12:24:32;;;;;;;5.80;4.60;;;;;;;;;;4111323;34;20092;-71
2021/09/19 12:27:15;;;;;;;4.28;3.45;;;;;;;;;;4110960;34;20139;-72
2021/09/19 12:29:42;;;;;;;10.65;4.03;;;;;;;;;;4123336;34;20122;-71
2021/09/19 12:32:07;;;;;;;6.28;4.55;;;;;;;;;;4110976;34;20540;-71
2021/09/19 12:34:33;;;;;;;7.20;4.72;;;;;;;;;;4123615;34;20278;-71
2021/09/19 12:36:59;;;;;;;4.75;4.25;;;;;;;;;;4111061;34;20126;-66
2021/09/19 12:39:31;;;;;;;5.30;3.40;;;;;;;;;;4123476;34;20106;-66
2021/09/19 12:42:04;;;;;;;3.85;3.30;;;;;;;;;;4123507;34;20602;-66
2021/09/19 12:44:32;;;;;;;4.53;3.65;;;;;;;;;;4122243;34;20260;-65
2021/09/19 12:47:01;;;;;;;4.15;3.10;;;;;;;;;;4111188;34;20587;-66
2021/09/19 12:49:32;;;;;;;4.10;3.12;;;;;;;;;;4111001;34;20104;-67
2021/09/19 12:52:05;;;;;;;4.20;3.80;;;;;;;;;;4111116;34;20092;-66
2021/09/19 12:54:35;;;;;;;5.93;4.55;;;;;;;;;;4123621;34;20188;-66
2021/09/19 12:57:02;;;;;;;4.90;4.18;;;;;;;;;;4121881;34;20216;-66
2021/09/19 12:59:28;;;;;;;4.95;3.67;;;;;;;;;;4123109;34;20522;-65
2021/09/19 13:01:54;;;;;;;5.03;3.37;;;;;;;;;;4110764;34;20203;-65
2021/09/19 13:04:20;;;;;;;3.60;3.10;;;;;;;;;;4123227;34;20258;-66
2021/09/19 13:06:46;;;;;;;6.32;4.37;;;;;;;;;;4121728;34;20108;-67
2021/09/19 13:09:13;;;;;;;3.20;2.90;;;;;;;;;;4121890;34;20215;-66
2021/09/19 13:11:40;;;;;;;3.45;2.85;;;;;;;;;;4122097;34;20537;-66
2021/09/19 13:14:06;;;;;;;3.37;3.08;;;;;;;;;;4110850;34;20207;-67
2021/09/19 13:16:32;;;;;;;4.10;3.00;;;;;;;;;;4123154;34;20151;-66
2021/09/19 13:18:58;;;;;;;6.45;4.10;;;;;;;;;;4121773;34;20452;-65
2021/09/19 13:21:23;;;;;;;3.55;3.25;;;;;;;;;;4121554;34;20123;-73
2021/09/19 13:23:49;;;;;;;4.50;2.65;;;;;;;;;;4110578;34;20119;-73
2021/09/19 13:26:15;;;;;;;4.65;3.65;;;;;;;;;;4110451;34;20192;-74
2021/09/19 13:28:41;;;;;;;4.22;3.40;;;;;;;;;;4123030;34;20210;-67
2021/09/19 13:31:07;;;;;;;6.20;4.12;;;;;;;;;;4121438;34;20123;-76
2021/09/19 13:33:33;;;;;;;5.68;3.53;;;;;;;;;;4144894;34;20558;-72
2021/09/19 13:35:59;;;;;;;4.32;3.70;;;;;;;;;;4148718;34;20130;-77
2021/09/19 13:38:25;;;;;;;4.07;3.50;;;;;;;;;;4137521;34;20536;-76
2021/09/19 13:40:51;;;;;;;6.47;4.30;;;;;;;;;;4136522;34;20098;-74
2021/09/19 13:43:17;;;;;;;44.35;26.35;;;;;;;;;;4148373;34;20127;-74
2021/09/19 13:45:43;;;;;;;13.95;9.15;;;;;;;;;;4148061;34;20287;-74
2021/09/19 13:48:09;;;;;;;11.32;7.43;;;;;;;;;;4148971;34;20133;-75
2021/09/19 13:50:35;;;;;;;5.43;3.37;;;;;;;;;;4137172;34;20451;-74
2021/09/19 13:53:01;;;;;;;3.97;3.37;;;;;;;;;;4149671;34;20122;-74
2021/09/19 13:55:27;;;;;;;9.00;4.20;;;;;;;;;;4137043;34;20117;-76
2021/09/19 13:57:53;;;;;;;16.40;7.53;;;;;;;;;;4137322;34;20122;-74
2021/09/19 14:00:21;;;;;;;23.80;11.12;;;;;;;;;;4148302;34;20115;-78
2021/09/19 14:02:47;;;;;;;33.00;14.00;;;;;;;;;;4148472;34;20557;-67
2021/09/19 14:05:13;;;;;;;33.80;13.85;;;;;;;;;;4136866;34;20123;-67
2021/09/19 14:07:39;;;;;;;28.50;15.57;;;;;;;;;;4149554;34;20123;-67
2021/09/19 14:10:06;;;;;;;26.77;13.38;;;;;;;;;;4148045;34;20660;-68
2021/09/19 14:12:32;;;;;;;19.85;10.07;;;;;;;;;;4148367;34;20099;-76
2021/09/19 14:14:57;;;;;;;14.90;9.68;;;;;;;;;;4149661;34;20206;-64
2021/09/19 14:17:25;;;;;;;23.27;10.55;;;;;;;;;;4147931;34;20118;-77
2021/09/19 14:19:51;;;;;;;20.20;12.82;;;;;;;;;;4137100;34;20102;-75
2021/09/19 14:22:17;;;;;;;22.33;11.55;;;;;;;;;;4148139;34;20178;-74
2021/09/19 14:24:43;;;;;;;22.67;14.52;;;;;;;;;;4149342;34;20480;-76
2021/09/19 14:27:09;;;;;;;22.20;14.25;;;;;;;;;;4136684;34;20099;-73
2021/09/19 14:29:35;;;;;;;15.10;10.48;;;;;;;;;;4149414;34;20145;-76
2021/09/19 14:32:00;;;;;;;19.15;11.10;;;;;;;;;;4147737;34;20118;-76
2021/09/19 14:34:27;;;;;;;19.08;7.78;;;;;;;;;;4147942;34;20210;-76
2021/09/19 14:36:53;;;;;;;14.85;9.27;;;;;;;;;;4149125;34;20312;-75
2021/09/19 14:39:19;;;;;;;21.75;12.48;;;;;;;;;;4148033;34;20119;-76
2021/09/19 14:41:45;;;;;;;22.52;13.13;;;;;;;;;;4136344;34;20127;-66
2021/09/19 14:44:11;;;;;;;18.08;9.07;;;;;;;;;;4138877;34;20544;-67
2021/09/19 14:46:37;;;;;;;15.63;9.55;;;;;;;;;;4111958;34;20622;-66
2021/09/19 14:49:03;;;;;;;16.37;11.57;;;;;;;;;;4123113;34;20298;-66
2021/09/19 14:51:29;;;;;;;22.08;11.55;;;;;;;;;;4136795;34;20199;-65
2021/09/19 14:53:57;;;;;;;11.90;8.13;;;;;;;;;;4137796;34;20147;-76
2021/09/19 14:56:22;;;;;;;14.48;8.60;;;;;;;;;;4136570;34;20112;-67
2021/09/19 14:58:52;;;;;;;11.15;8.10;;;;;;;;;;4130207;34;20138;-66
2021/09/19 15:01:18;;;;;;;13.25;8.73;;;;;;;;;;4128482;34;20100;-68
2021/09/19 15:03:44;;;;;;;14.15;11.40;;;;;;;;;;4113267;34;20094;-77